createdAt,value
2023-03-06T00:00:25.498Z,28.40
2023-03-06T00:02:53.131Z,26.35
2023-03-06T00:05:20.477Z,24.27
2023-03-06T00:07:47.409Z,24.10
2023-03-06T00:10:22.822Z,22.25
2023-03-06T00:12:56.796Z,22.50
2023-03-06T00:15:24.730Z,22.42
2023-03-06T00:17:51.832Z,24.98
2023-03-06T00:20:19.431Z,25.63
2023-03-06T00:22:46.889Z,25.08
2023-03-06T00:25:17.149Z,23.23
2023-03-06T00:27:44.152Z,26.98
2023-03-06T00:30:13.589Z,22.73
2023-03-06T00:32:40.658Z,24.10
2023-03-06T00:35:07.830Z,25.38
2023-03-06T00:37:34.619Z,23.40
2023-03-06T00:40:01.788Z,21.30
2023-03-06T00:42:28.490Z,22.02
2023-03-06T00:44:55.146Z,23.35
2023-03-06T00:47:21.999Z,24.42
2023-03-06T00:49:49.732Z,23.70
2023-03-06T00:52:16.422Z,22.63
2023-03-06T00:54:43.364Z,22.48
2023-03-06T00:57:10.315Z,24.40
2023-03-06T00:59:37.023Z,24.48
2023-03-06T01:02:04.091Z,26.73
2023-03-06T01:04:31.204Z,24.73
2023-03-06T01:06:58.029Z,24.55
2023-03-06T01:09:24.933Z,24.65
2023-03-06T01:11:51.617Z,27.52
2023-03-06T01:14:19.455Z,25.75
2023-03-06T01:16:48.161Z,27.98
2023-03-06T01:19:15.493Z,27.23
2023-03-06T01:21:42.158Z,25.27
2023-03-06T01:24:09.050Z,26.15
2023-03-06T01:26:35.721Z,24.50
2023-03-06T01:29:02.979Z,22.35
2023-03-06T01:31:29.826Z,25.63
2023-03-06T01:33:56.887Z,23.63
2023-03-06T01:36:23.626Z,23.65
2023-03-06T01:38:50.347Z,26.20
2023-03-06T01:41:17.866Z,22.20
2023-03-06T01:43:46.224Z,22.58
2023-03-06T01:46:33.808Z,20.85
2023-03-06T01:49:12.867Z,22.23
2023-03-06T01:52:02.326Z,26.30
2023-03-06T01:54:33.264Z,25.98
2023-03-06T01:57:07.237Z,26.85
2023-03-06T01:59:37.349Z,25.75
2023-03-06T02:02:05.843Z,21.77
2023-03-06T02:04:33.295Z,20.27
2023-03-06T02:07:04.737Z,21.20
2023-03-06T02:09:33.684Z,20.55
2023-03-06T02:12:08.023Z,20.52
2023-03-06T02:14:35.063Z,20.85
2023-03-06T02:17:02.682Z,20.48
2023-03-06T02:19:42.845Z,22.88
2023-03-06T02:22:10.218Z,22.27
2023-03-06T02:25:01.872Z,23.33
2023-03-06T02:27:28.993Z,23.33
2023-03-06T02:29:55.729Z,22.90
2023-03-06T02:32:22.534Z,23.88
2023-03-06T02:34:55.968Z,25.42
2023-03-06T02:37:24.306Z,24.55
2023-03-06T02:40:08.448Z,27.27
2023-03-06T02:42:35.774Z,26.70
2023-03-06T02:45:05.339Z,26.25
2023-03-06T02:47:32.168Z,27.70
2023-03-06T02:49:58.907Z,24.35
2023-03-06T02:52:25.767Z,22.20
2023-03-06T02:54:52.427Z,24.20
2023-03-06T02:57:19.470Z,25.45
2023-03-06T02:59:46.191Z,28.67
2023-03-06T03:02:13.013Z,26.42
2023-03-06T03:04:39.761Z,27.10
2023-03-06T03:07:06.601Z,24.05
2023-03-06T03:09:37.059Z,29.58
2023-03-06T03:12:06.737Z,26.40
2023-03-06T03:14:33.547Z,26.88
2023-03-06T03:17:00.811Z,27.65
2023-03-06T03:19:27.646Z,26.92
2023-03-06T03:21:54.325Z,28.48
2023-03-06T03:24:21.078Z,26.95
2023-03-06T03:26:47.876Z,25.55
2023-03-06T03:29:14.571Z,30.08
2023-03-06T03:31:41.798Z,26.52
2023-03-06T03:34:08.953Z,30.77
2023-03-06T03:36:35.681Z,26.23
2023-03-06T03:39:03.421Z,25.95
2023-03-06T03:41:30.546Z,28.02
2023-03-06T03:43:57.263Z,24.73
2023-03-06T03:46:24.036Z,25.80
2023-03-06T03:48:50.991Z,26.88
2023-03-06T03:51:17.830Z,26.20
2023-03-06T03:53:45.089Z,29.27
2023-03-06T03:56:13.209Z,29.30
2023-03-06T03:58:40.160Z,25.08
2023-03-06T04:01:06.910Z,24.98
2023-03-06T04:03:33.988Z,27.80
2023-03-06T04:06:01.272Z,26.33
2023-03-06T04:08:28.229Z,29.58
2023-03-06T04:10:55.019Z,28.85
2023-03-06T04:13:22.470Z,30.95
2023-03-06T04:15:51.477Z,28.08
2023-03-06T04:18:18.772Z,28.10
2023-03-06T04:20:47.376Z,29.15
2023-03-06T04:23:14.799Z,28.52
2023-03-06T04:25:41.775Z,24.83
2023-03-06T04:28:08.827Z,31.42
2023-03-06T04:30:36.793Z,27.33
2023-03-06T04:33:03.787Z,27.30
2023-03-06T04:35:30.600Z,28.33
2023-03-06T04:37:57.377Z,26.35
2023-03-06T04:40:30.477Z,28.42
2023-03-06T04:42:58.978Z,26.77
2023-03-06T04:45:27.421Z,31.88
2023-03-06T04:47:54.509Z,33.17
2023-03-06T04:50:22.454Z,30.23
2023-03-06T04:52:49.195Z,34.72
2023-03-06T04:55:17.997Z,32.40
2023-03-06T04:57:46.543Z,34.53
2023-03-06T05:00:19.283Z,34.05
2023-03-06T05:02:47.012Z,34.10
2023-03-06T05:05:14.103Z,33.70
2023-03-06T05:07:41.384Z,32.20
2023-03-06T05:10:11.447Z,33.00
2023-03-06T05:12:39.459Z,30.10
2023-03-06T05:15:07.593Z,32.22
2023-03-06T05:17:34.679Z,29.85
2023-03-06T05:20:01.338Z,31.48
2023-03-06T05:22:28.014Z,33.05
2023-03-06T05:24:54.691Z,28.58
2023-03-06T05:27:21.384Z,30.15
2023-03-06T05:29:48.288Z,32.30
2023-03-06T05:32:16.910Z,29.85
2023-03-06T05:34:43.757Z,30.20
2023-03-06T05:37:10.458Z,32.17
2023-03-06T05:39:37.324Z,30.98
2023-03-06T05:42:04.398Z,29.70
2023-03-06T05:44:35.668Z,31.80
2023-03-06T05:47:02.619Z,31.15
2023-03-06T05:49:34.438Z,32.75
2023-03-06T05:52:04.073Z,34.20
2023-03-06T05:54:35.382Z,32.80
2023-03-06T05:57:02.647Z,32.40
2023-03-06T05:59:29.446Z,30.55
2023-03-06T06:01:56.282Z,31.15
2023-03-06T06:04:24.988Z,31.02
2023-03-06T06:06:56.350Z,31.27
2023-03-06T06:09:23.523Z,31.92
2023-03-06T06:11:55.482Z,32.10
2023-03-06T06:14:22.544Z,30.63
2023-03-06T06:16:51.702Z,33.67
2023-03-06T06:19:20.195Z,33.00
2023-03-06T06:21:48.551Z,34.58
2023-03-06T06:24:16.928Z,34.10
2023-03-06T06:26:44.083Z,31.13
2023-03-06T06:29:12.222Z,33.10
2023-03-06T06:31:40.198Z,35.30
2023-03-06T06:34:07.850Z,32.38
2023-03-06T06:36:34.781Z,35.60
2023-03-06T06:39:01.575Z,33.40
2023-03-06T06:41:50.752Z,33.70
2023-03-06T06:44:16.224Z,33.53
2023-03-06T06:49:32.719Z,33.72
2023-03-06T06:51:59.458Z,28.95
2023-03-06T06:54:26.328Z,42.60
2023-03-06T06:56:53.168Z,38.05
2023-03-06T06:59:20.247Z,33.72
2023-03-06T07:01:47.299Z,32.25
2023-03-06T07:04:14.748Z,31.95
2023-03-06T07:06:42.454Z,38.53
2023-03-06T07:09:09.469Z,35.95
2023-03-06T07:11:37.744Z,39.15
2023-03-06T07:14:04.783Z,37.92
2023-03-06T07:16:31.713Z,33.13
2023-03-06T07:18:58.399Z,31.98
2023-03-06T07:21:25.095Z,32.83
2023-03-06T07:23:52.152Z,33.53
2023-03-06T07:26:18.827Z,31.02
2023-03-06T07:28:52.383Z,36.47
2023-03-06T07:31:26.161Z,34.30
2023-03-06T07:33:54.103Z,34.15
2023-03-06T07:36:22.628Z,35.90
2023-03-06T07:38:49.415Z,32.33
2023-03-06T07:41:17.171Z,36.95
2023-03-06T07:43:45.661Z,40.95
2023-03-06T07:46:14.237Z,39.28
2023-03-06T07:48:41.997Z,32.65
2023-03-06T07:51:15.159Z,37.00
2023-03-06T07:53:42.317Z,34.83
2023-03-06T07:56:09.543Z,36.53
2023-03-06T07:58:41.982Z,36.55
2023-03-06T08:01:18.454Z,42.25
2023-03-06T08:03:45.309Z,37.28
2023-03-06T08:06:27.124Z,36.15
2023-03-06T08:08:55.719Z,35.10
2023-03-06T08:11:25.173Z,34.42
2023-03-06T08:13:53.196Z,34.72
2023-03-06T08:16:21.612Z,34.65
2023-03-06T08:18:48.502Z,30.58
2023-03-06T08:21:18.639Z,31.02
2023-03-06T08:23:46.665Z,34.03
2023-03-06T08:26:42.774Z,28.50
2023-03-06T08:29:10.847Z,27.23
2023-03-06T08:31:40.558Z,30.75
2023-03-06T08:34:09.855Z,25.70
2023-03-06T08:36:36.649Z,26.98
2023-03-06T08:39:04.772Z,27.75
2023-03-06T08:41:32.180Z,28.52
2023-03-06T08:43:58.956Z,27.58
2023-03-06T08:46:27.500Z,29.08
2023-03-06T08:48:54.214Z,30.33
2023-03-06T08:51:21.751Z,24.63
2023-03-06T08:53:49.926Z,25.27
2023-03-06T08:56:24.056Z,27.52
2023-03-06T08:58:51.124Z,25.58
2023-03-06T09:01:21.023Z,26.45
2023-03-06T09:03:48.220Z,26.52
2023-03-06T09:06:15.440Z,23.92
2023-03-06T09:08:44.090Z,24.88
2023-03-06T09:11:15.388Z,27.95
2023-03-06T09:13:43.348Z,29.00
2023-03-06T09:16:13.569Z,26.60
2023-03-06T09:18:40.648Z,26.40
2023-03-06T09:21:08.974Z,28.23
2023-03-06T09:23:37.140Z,27.88
2023-03-06T09:26:04.007Z,25.30
2023-03-06T09:28:30.721Z,25.67
2023-03-06T09:30:57.449Z,30.50
2023-03-06T09:33:24.363Z,26.38
2023-03-06T09:35:54.510Z,31.15
2023-03-06T09:38:23.812Z,25.60
2023-03-06T09:40:57.444Z,26.98
2023-03-06T09:43:40.241Z,28.15
2023-03-06T09:46:31.169Z,25.02
2023-03-06T09:49:15.179Z,25.27
2023-03-06T09:51:59.768Z,18.60
2023-03-06T09:54:50.438Z,22.20
2023-03-06T09:57:37.817Z,19.25
2023-03-06T10:00:12.229Z,26.95
2023-03-06T10:05:26.147Z,25.98
2023-03-06T10:08:17.046Z,20.70
2023-03-06T10:10:59.402Z,18.95
2023-03-06T10:13:33.315Z,18.77
2023-03-06T10:16:30.560Z,19.55
2023-03-06T10:19:07.214Z,23.80
2023-03-06T10:21:55.685Z,18.73
2023-03-06T10:24:46.287Z,22.58
2023-03-06T10:27:21.742Z,21.75
2023-03-06T10:30:03.359Z,20.10
2023-03-06T10:32:49.847Z,23.40
2023-03-06T10:35:25.630Z,18.05
2023-03-06T10:38:19.340Z,21.02
2023-03-06T10:41:05.760Z,20.42
2023-03-06T10:43:36.017Z,21.38
2023-03-06T10:46:03.786Z,21.50
2023-03-06T10:48:35.395Z,21.10
2023-03-06T10:51:24.528Z,21.92
2023-03-06T10:53:55.906Z,18.58
2023-03-06T10:56:33.979Z,20.63
2023-03-06T10:59:25.451Z,20.15
2023-03-06T11:01:56.521Z,19.48
2023-03-06T11:04:32.676Z,19.42
2023-03-06T11:07:20.955Z,18.58
2023-03-06T11:10:19.533Z,17.65
2023-03-06T11:13:03.005Z,22.00
2023-03-06T11:15:30.731Z,22.15
2023-03-06T11:18:24.622Z,20.33
2023-03-06T11:20:54.263Z,18.98
2023-03-06T11:23:33.025Z,19.80
2023-03-06T11:26:18.072Z,18.02
2023-03-06T11:28:48.011Z,25.13
2023-03-06T11:31:21.804Z,16.95
2023-03-06T11:34:20.941Z,17.90
2023-03-06T11:37:15.264Z,21.65
2023-03-06T11:39:54.794Z,19.30
2023-03-06T11:42:30.352Z,21.52
2023-03-06T11:45:15.462Z,19.50
2023-03-06T11:48:12.739Z,16.42
2023-03-06T11:50:43.502Z,14.98
2023-03-06T11:53:32.374Z,17.38
2023-03-06T12:00:18.721Z,20.63
2023-03-06T12:03:11.171Z,19.75
2023-03-06T12:05:50.933Z,24.00
2023-03-06T12:08:40.585Z,20.95
2023-03-06T12:11:39.423Z,21.38
2023-03-06T12:14:25.737Z,18.52
2023-03-06T12:17:02.593Z,15.55
2023-03-06T12:19:49.757Z,16.25
2023-03-06T12:22:57.407Z,16.40
2023-03-06T12:25:42.377Z,18.95
2023-03-06T12:28:32.078Z,18.05
2023-03-06T12:31:11.165Z,15.95
2023-03-06T12:33:58.333Z,19.35
2023-03-06T12:37:02.804Z,21.83
2023-03-06T12:39:53.205Z,16.45
2023-03-06T12:42:26.564Z,28.25
2023-03-06T12:45:06.666Z,17.63
2023-03-06T12:47:41.158Z,16.17
2023-03-06T12:52:44.409Z,17.63
2023-03-06T12:55:16.862Z,16.98
2023-03-06T12:57:43.783Z,17.20
2023-03-06T13:00:32.552Z,16.55
2023-03-06T13:03:25.988Z,20.65
2023-03-06T13:06:14.581Z,15.90
2023-03-06T13:12:31.177Z,16.02
2023-03-06T13:15:27.407Z,17.52
2023-03-06T13:17:54.198Z,17.30
2023-03-06T13:20:56.680Z,24.23
2023-03-06T13:23:29.549Z,13.43
2023-03-06T13:25:58.281Z,15.20
2023-03-06T13:28:26.477Z,14.40
2023-03-06T13:30:53.427Z,13.20
2023-03-06T13:33:36.278Z,15.32
2023-03-06T13:36:24.806Z,13.63
2023-03-06T13:38:51.826Z,15.50
2023-03-06T13:41:27.326Z,12.25
2023-03-06T13:43:56.627Z,12.60
2023-03-06T13:46:35.529Z,11.68
2023-03-06T13:49:08.328Z,13.75
2023-03-06T13:52:06.974Z,14.23
2023-03-06T13:54:56.570Z,10.60
2023-03-06T13:57:41.224Z,12.05
2023-03-06T14:00:44.015Z,14.05
2023-03-06T14:03:34.981Z,10.70
2023-03-06T14:06:01.781Z,11.57
2023-03-06T14:08:32.042Z,9.68
2023-03-06T14:11:19.168Z,10.95
2023-03-06T14:13:52.611Z,8.95
2023-03-06T14:16:24.887Z,11.05
2023-03-06T14:18:53.509Z,11.80
2023-03-06T14:21:33.599Z,10.00
2023-03-06T14:24:03.397Z,10.93
2023-03-06T14:26:34.113Z,9.80
2023-03-06T14:29:02.416Z,9.20
2023-03-06T14:31:37.287Z,10.45
2023-03-06T14:34:06.461Z,11.60
2023-03-06T14:36:49.692Z,10.57
2023-03-06T14:39:29.637Z,9.38
2023-03-06T14:42:18.488Z,11.88
2023-03-06T14:44:47.538Z,12.15
2023-03-06T14:47:36.777Z,10.82
2023-03-06T14:50:26.613Z,11.00
2023-03-06T14:52:55.501Z,11.02
2023-03-06T14:55:25.416Z,9.15
2023-03-06T14:58:01.057Z,10.73
2023-03-06T15:00:36.457Z,9.60
2023-03-06T15:03:08.438Z,8.57
2023-03-06T15:05:35.567Z,9.82
2023-03-06T15:08:08.247Z,9.68
2023-03-06T15:10:36.515Z,12.80
2023-03-06T15:13:18.538Z,13.63
2023-03-06T15:15:59.342Z,9.20
2023-03-06T15:18:35.250Z,9.90
2023-03-06T15:21:19.926Z,8.95
2023-03-06T15:23:49.546Z,8.25
2023-03-06T15:26:22.069Z,9.95
2023-03-06T15:29:10.242Z,7.15
2023-03-06T15:31:44.913Z,9.40
2023-03-06T15:36:42.392Z,9.05
2023-03-06T15:39:32.492Z,8.65
2023-03-06T15:42:20.293Z,8.35
2023-03-06T15:44:53.207Z,9.13
2023-03-06T15:47:20.947Z,8.82
2023-03-06T15:49:51.865Z,9.13
2023-03-06T15:52:20.216Z,9.80
2023-03-06T15:54:47.011Z,9.18
2023-03-06T15:57:24.039Z,8.15
2023-03-06T15:59:51.309Z,12.40
2023-03-06T16:02:20.652Z,9.30
2023-03-06T16:04:48.583Z,7.43
2023-03-06T16:07:15.279Z,9.20
2023-03-06T16:09:43.112Z,8.18
2023-03-06T16:12:18.580Z,9.35
2023-03-06T16:14:47.750Z,8.50
2023-03-06T16:17:15.423Z,9.63
2023-03-06T16:19:43.063Z,16.35
2023-03-06T16:22:09.844Z,12.23
2023-03-06T16:24:37.262Z,10.23
2023-03-06T16:27:04.716Z,9.02
2023-03-06T16:29:32.141Z,10.40
2023-03-06T16:32:01.632Z,9.13
2023-03-06T16:34:28.781Z,12.20
2023-03-06T16:36:55.573Z,17.38
2023-03-06T16:39:23.785Z,12.15
2023-03-06T16:41:50.744Z,15.20
2023-03-06T16:44:17.522Z,12.65
2023-03-06T16:46:46.192Z,13.63
2023-03-06T16:49:25.476Z,15.88
2023-03-06T16:51:53.158Z,16.50
2023-03-06T16:54:21.858Z,47.70
2023-03-06T16:56:48.529Z,22.95
2023-03-06T16:59:15.317Z,13.82
2023-03-06T17:01:45.301Z,17.00
2023-03-06T17:04:12.565Z,16.65
2023-03-06T17:06:39.818Z,16.35
2023-03-06T17:09:06.693Z,16.55
2023-03-06T17:11:35.236Z,29.85
2023-03-06T17:14:02.072Z,22.58
2023-03-06T17:16:28.777Z,13.55
2023-03-06T17:18:55.458Z,15.90
2023-03-06T17:21:22.313Z,11.27
2023-03-06T17:23:50.838Z,10.15
2023-03-06T17:26:19.172Z,11.48
2023-03-06T17:28:46.709Z,12.23
2023-03-06T17:31:19.547Z,12.75
2023-03-06T17:33:47.177Z,12.57
2023-03-06T17:36:15.664Z,12.60
2023-03-06T17:38:42.628Z,11.68
2023-03-06T17:41:11.046Z,12.02
2023-03-06T17:43:38.862Z,13.00
2023-03-06T17:46:11.121Z,14.63
2023-03-06T17:48:38.924Z,11.45
2023-03-06T17:51:06.326Z,11.23
2023-03-06T17:53:33.293Z,10.77
2023-03-06T17:56:00.041Z,11.27
2023-03-06T17:58:27.283Z,12.98
2023-03-06T18:00:54.325Z,15.48
2023-03-06T18:03:21.259Z,11.88
2023-03-06T18:05:48.317Z,21.63
2023-03-06T18:08:15.036Z,19.15
2023-03-06T18:10:43.336Z,28.58
2023-03-06T18:13:10.517Z,25.98
2023-03-06T18:15:41.251Z,16.08
2023-03-06T18:18:08.905Z,23.35
2023-03-06T18:20:40.990Z,12.98
2023-03-06T18:23:07.962Z,16.30
2023-03-06T18:25:35.133Z,29.73
2023-03-06T18:28:02.038Z,24.25
2023-03-06T18:30:28.807Z,24.45
2023-03-06T18:32:55.617Z,13.80
2023-03-06T18:35:22.596Z,10.13
2023-03-06T18:37:49.321Z,12.57
2023-03-06T18:40:16.198Z,16.08
2023-03-06T18:42:42.909Z,15.05
2023-03-06T18:45:10.748Z,13.13
2023-03-06T18:47:37.377Z,17.85
2023-03-06T18:50:04.369Z,16.60
2023-03-06T18:52:31.046Z,28.23
2023-03-06T18:54:57.755Z,18.83
2023-03-06T18:57:24.443Z,12.18
2023-03-06T18:59:51.135Z,11.98
2023-03-06T19:02:17.806Z,14.57
2023-03-06T19:04:44.679Z,47.05
2023-03-06T19:07:13.360Z,20.00
2023-03-06T19:09:40.099Z,20.17
2023-03-06T19:12:06.984Z,16.98
2023-03-06T19:14:33.764Z,17.35
2023-03-06T19:17:00.444Z,17.83
2023-03-06T19:19:29.318Z,16.15
2023-03-06T19:21:59.654Z,17.95
2023-03-06T19:24:26.589Z,19.60
2023-03-06T19:26:53.424Z,16.92
2023-03-06T19:29:20.233Z,19.75
2023-03-06T19:31:46.924Z,18.25
2023-03-06T19:34:13.588Z,15.40
2023-03-06T19:36:40.926Z,16.35
2023-03-06T19:39:09.482Z,17.90
2023-03-06T19:41:36.555Z,23.20
2023-03-06T19:44:05.824Z,17.17
2023-03-06T19:46:34.105Z,18.85
2023-03-06T19:49:02.690Z,20.70
2023-03-06T19:51:29.987Z,23.23
2023-03-06T19:53:57.734Z,24.60
2023-03-06T19:56:29.175Z,20.45
2023-03-06T19:58:56.543Z,18.10
2023-03-06T20:01:25.558Z,18.27
2023-03-06T20:03:59.844Z,19.98
2023-03-06T20:06:29.137Z,15.70
2023-03-06T20:08:55.823Z,17.83
2023-03-06T20:11:26.097Z,18.98
2023-03-06T20:13:53.774Z,21.05
2023-03-06T20:16:20.459Z,27.48
2023-03-06T20:18:47.150Z,29.45
2023-03-06T20:21:15.243Z,40.13
2023-03-06T20:23:42.850Z,35.13
2023-03-06T20:26:12.193Z,38.50
2023-03-06T20:28:40.654Z,53.83
2023-03-06T20:31:16.884Z,29.60
2023-03-06T20:33:45.070Z,53.03
2023-03-06T20:36:20.102Z,33.30
2023-03-06T20:38:47.316Z,22.85
2023-03-06T20:41:15.479Z,25.75
2023-03-06T20:43:42.766Z,20.88
2023-03-06T20:46:11.201Z,16.45
2023-03-06T20:48:38.871Z,26.42
2023-03-06T20:51:16.081Z,24.10
2023-03-06T20:53:43.017Z,19.88
2023-03-06T20:56:13.992Z,15.23
2023-03-06T20:58:40.695Z,17.15
2023-03-06T21:01:07.543Z,21.45
2023-03-06T21:03:34.352Z,22.58
2023-03-06T21:06:01.095Z,16.30
2023-03-06T21:08:27.897Z,15.93
2023-03-06T21:10:55.024Z,18.00
2023-03-06T21:13:21.780Z,16.23
2023-03-06T21:15:48.544Z,17.80
2023-03-06T21:18:15.264Z,19.42
2023-03-06T21:20:42.338Z,17.17
2023-03-06T21:23:09.289Z,15.57
2023-03-06T21:25:36.124Z,15.68
2023-03-06T21:28:02.839Z,14.52
2023-03-06T21:30:29.921Z,19.02
2023-03-06T21:32:56.788Z,17.33
2023-03-06T21:35:23.493Z,17.65
2023-03-06T21:37:50.408Z,17.00
2023-03-06T21:40:17.207Z,17.35
2023-03-06T21:42:43.898Z,15.15
2023-03-06T21:45:10.970Z,13.55
2023-03-06T21:47:38.829Z,13.15
2023-03-06T21:50:08.006Z,16.60
2023-03-06T21:52:34.854Z,15.90
2023-03-06T21:55:01.526Z,16.02
2023-03-06T21:57:28.274Z,14.07
2023-03-06T21:59:54.958Z,14.55
2023-03-06T22:02:22.221Z,11.98
2023-03-06T22:04:51.114Z,14.85
2023-03-06T22:07:18.374Z,18.33
2023-03-06T22:09:45.537Z,18.13
2023-03-06T22:12:12.441Z,16.85
2023-03-06T22:14:39.184Z,18.38
2023-03-06T22:17:05.984Z,24.38
2023-03-06T22:19:32.930Z,21.23
2023-03-06T22:21:59.667Z,16.55
2023-03-06T22:24:26.421Z,16.42
2023-03-06T22:27:16.189Z,16.90
2023-03-06T22:29:43.321Z,14.20
2023-03-06T22:32:10.011Z,15.25
2023-03-06T22:34:36.785Z,13.25
2023-03-06T22:37:03.514Z,13.05
2023-03-06T22:39:30.787Z,12.30
2023-03-06T22:41:58.072Z,13.82
2023-03-06T22:44:24.811Z,12.85
2023-03-06T22:46:51.806Z,13.75
2023-03-06T22:49:19.003Z,14.50
2023-03-06T22:51:45.674Z,14.27
2023-03-06T22:54:12.452Z,14.98
2023-03-06T22:56:39.124Z,14.85
2023-03-06T22:59:05.862Z,14.63
2023-03-06T23:01:34.060Z,15.07
2023-03-06T23:04:03.322Z,13.55
2023-03-06T23:06:35.782Z,12.77
2023-03-06T23:09:12.108Z,14.00
2023-03-06T23:11:38.903Z,12.77
2023-03-06T23:14:05.952Z,12.30
2023-03-06T23:16:33.462Z,14.63
2023-03-06T23:19:00.205Z,14.60
2023-03-06T23:21:27.040Z,12.50
2023-03-06T23:23:54.744Z,13.40
2023-03-06T23:26:25.064Z,10.85
2023-03-06T23:28:52.661Z,14.82
2023-03-06T23:31:22.802Z,12.65
2023-03-06T23:33:49.944Z,13.82
2023-03-06T23:36:18.755Z,12.48
2023-03-06T23:38:45.765Z,12.45
2023-03-06T23:41:14.597Z,12.65
2023-03-06T23:43:41.772Z,13.02
2023-03-06T23:46:09.203Z,12.27
2023-03-06T23:48:37.932Z,13.82
2023-03-06T23:51:06.581Z,13.40
2023-03-06T23:53:33.383Z,12.18
2023-03-06T23:56:00.192Z,12.40
2023-03-06T23:58:26.934Z,13.90
